createdAt,value
2018-08-31T00:02:56.052Z,101093.17
2018-08-31T00:05:43.177Z,101085.28
2018-08-31T00:10:31.680Z,101087.84
2018-08-31T00:13:00.477Z,101091.23
2018-08-31T00:15:29.292Z,101088.50
2018-08-31T00:17:58.174Z,101087.05
2018-08-31T00:20:27.241Z,101088.63
2018-08-31T00:22:56.099Z,101092.77
2018-08-31T00:26:04.163Z,101098.00
2018-08-31T00:29:11.833Z,101097.13
2018-08-31T00:34:04.597Z,101091.41
2018-08-31T00:37:41.995Z,101094.57
2018-08-31T00:41:22.234Z,101089.09
2018-08-31T00:44:10.148Z,101092.25
2018-08-31T00:46:39.005Z,101085.38
2018-08-31T00:49:08.108Z,101085.61
2018-08-31T00:51:36.938Z,101083.00
2018-08-31T00:54:06.069Z,101087.80
2018-08-31T00:56:34.920Z,101084.47
2018-08-31T00:59:03.724Z,101089.22
2018-08-31T01:01:32.506Z,101088.63
2018-08-31T01:04:01.434Z,101092.19
2018-08-31T01:06:30.245Z,101087.25
2018-08-31T01:08:59.047Z,101090.66
2018-08-31T01:11:27.900Z,101095.17
2018-08-31T01:13:56.746Z,101099.31
2018-08-31T01:16:25.633Z,101093.02
2018-08-31T01:18:54.442Z,101085.25
2018-08-31T01:21:23.309Z,101083.31
2018-08-31T01:23:52.108Z,101081.78
2018-08-31T01:26:20.885Z,101078.84
2018-08-31T01:28:49.741Z,101075.94
2018-08-31T01:31:18.560Z,101074.23
2018-08-31T01:33:47.369Z,101077.53
2018-08-31T01:36:17.429Z,101076.75
2018-08-31T01:38:46.324Z,101074.86
2018-08-31T01:41:15.140Z,101075.48
2018-08-31T01:43:44.007Z,101072.55
2018-08-31T01:46:13.014Z,101070.61
2018-08-31T01:48:41.815Z,101077.55
2018-08-31T01:51:15.768Z,101074.96
2018-08-31T01:53:44.578Z,101075.93
2018-08-31T01:56:13.398Z,101082.43
2018-08-31T01:58:42.291Z,101079.80
2018-08-31T02:01:11.159Z,101077.59
2018-08-31T02:03:39.966Z,101078.56
2018-08-31T02:06:08.828Z,101075.27
2018-08-31T02:08:41.685Z,101068.38
2018-08-31T02:11:10.567Z,101071.98
2018-08-31T02:13:39.436Z,101070.17
2018-08-31T02:16:08.343Z,101069.42
2018-08-31T02:18:37.399Z,101070.53
2018-08-31T02:21:06.343Z,101069.70
2018-08-31T02:23:35.298Z,101070.75
2018-08-31T02:26:04.181Z,101071.27
2018-08-31T02:28:33.005Z,101064.52
2018-08-31T02:31:01.862Z,101064.72
2018-08-31T02:33:30.671Z,101067.50
2018-08-31T02:36:00.734Z,101065.43
2018-08-31T02:38:29.530Z,101070.05
2018-08-31T02:40:58.491Z,101068.69
2018-08-31T02:43:28.742Z,101075.28
2018-08-31T02:45:57.576Z,101078.17
2018-08-31T02:48:26.509Z,101076.14
2018-08-31T02:50:55.301Z,101074.66
2018-08-31T02:53:24.170Z,101076.67
2018-08-31T02:55:53.008Z,101079.84
2018-08-31T02:58:21.847Z,101077.78
2018-08-31T03:00:50.702Z,101085.64
2018-08-31T03:03:19.498Z,101082.77
2018-08-31T03:05:48.390Z,101086.59
2018-08-31T03:08:17.357Z,101081.80
2018-08-31T03:10:46.255Z,101080.48
2018-08-31T03:13:15.091Z,101092.80
2018-08-31T03:15:43.945Z,101093.38
2018-08-31T03:18:12.750Z,101093.94
2018-08-31T03:20:41.949Z,101095.01
2018-08-31T03:23:10.777Z,101096.08
2018-08-31T03:25:39.578Z,101095.73
2018-08-31T03:28:08.419Z,101100.94
2018-08-31T03:30:37.386Z,101101.02
2018-08-31T03:33:06.497Z,101100.89
2018-08-31T03:35:35.302Z,101108.31
2018-08-31T03:38:05.605Z,101109.80
2018-08-31T03:40:34.407Z,101114.09
2018-08-31T03:43:03.292Z,101114.39
2018-08-31T03:45:32.270Z,101110.44
2018-08-31T03:48:01.091Z,101114.16
2018-08-31T03:50:29.949Z,101117.21
2018-08-31T03:52:58.762Z,101114.39
2018-08-31T03:55:27.723Z,101118.41
2018-08-31T03:57:56.566Z,101122.35
2018-08-31T04:00:25.563Z,101121.16
2018-08-31T04:02:54.381Z,101124.22
2018-08-31T04:05:23.255Z,101126.62
2018-08-31T04:07:52.043Z,101132.66
2018-08-31T04:10:20.890Z,101131.89
2018-08-31T04:12:49.683Z,101136.57
2018-08-31T04:15:18.474Z,101137.47
2018-08-31T04:17:47.430Z,101133.58
2018-08-31T04:20:16.284Z,101139.73
2018-08-31T04:22:45.120Z,101145.02
2018-08-31T04:25:15.290Z,101143.81
2018-08-31T04:27:44.107Z,101153.81
2018-08-31T04:30:12.908Z,101152.18
2018-08-31T04:32:43.087Z,101149.69
2018-08-31T04:35:11.903Z,101148.69
2018-08-31T04:37:40.810Z,101151.84
2018-08-31T04:40:11.102Z,101156.73
2018-08-31T04:42:39.940Z,101151.44
2018-08-31T04:45:08.868Z,101150.62
2018-08-31T04:47:37.737Z,101151.95
2018-08-31T04:50:06.761Z,101147.64
2018-08-31T04:52:35.590Z,101151.45
2018-08-31T04:55:07.018Z,101151.87
2018-08-31T04:57:35.841Z,101156.38
2018-08-31T05:00:04.833Z,101163.88
2018-08-31T05:02:33.688Z,101157.98
2018-08-31T05:05:02.752Z,101163.47
2018-08-31T05:07:31.568Z,101156.46
2018-08-31T05:10:00.428Z,101168.33
2018-08-31T05:12:30.525Z,101166.05
2018-08-31T05:14:59.384Z,101158.82
2018-08-31T05:17:28.301Z,101166.16
2018-08-31T05:19:57.191Z,101168.45
2018-08-31T05:22:26.168Z,101166.62
2018-08-31T05:24:55.013Z,101168.94
2018-08-31T05:27:23.861Z,101171.48
2018-08-31T05:29:52.656Z,101173.45
2018-08-31T05:32:21.530Z,101175.91
2018-08-31T05:34:50.450Z,101180.95
2018-08-31T05:37:19.217Z,101179.35
2018-08-31T05:39:48.082Z,101177.44
2018-08-31T05:42:17.081Z,101180.48
2018-08-31T05:44:45.961Z,101180.13
2018-08-31T05:47:16.021Z,101183.39
2018-08-31T05:49:44.855Z,101187.87
2018-08-31T05:52:13.684Z,101185.60
2018-08-31T05:54:42.488Z,101186.61
2018-08-31T05:57:11.359Z,101184.98
2018-08-31T05:59:40.166Z,101177.09
2018-08-31T06:02:09.000Z,101169.64
2018-08-31T06:04:38.141Z,101180.55
2018-08-31T06:07:07.782Z,101189.17
2018-08-31T06:09:36.621Z,101185.00
2018-08-31T06:12:05.585Z,101192.59
2018-08-31T06:14:34.511Z,101192.53
2018-08-31T06:17:04.787Z,101185.83
2018-08-31T06:19:33.632Z,101183.30
2018-08-31T06:22:02.520Z,101185.99
2018-08-31T06:24:31.410Z,101183.91
2018-08-31T06:27:00.342Z,101181.72
2018-08-31T06:29:29.181Z,101179.46
2018-08-31T06:31:58.064Z,101185.85
2018-08-31T06:34:26.931Z,101179.41
2018-08-31T06:36:55.778Z,101184.59
2018-08-31T06:39:24.597Z,101186.34
2018-08-31T06:41:55.121Z,101189.26
2018-08-31T06:44:23.952Z,101193.48
2018-08-31T06:46:52.845Z,101196.06
2018-08-31T06:49:21.706Z,101190.67
2018-08-31T06:51:50.559Z,101192.21
2018-08-31T06:54:19.438Z,101196.55
2018-08-31T06:56:48.441Z,101193.77
2018-08-31T06:59:17.336Z,101190.32
2018-08-31T07:01:46.178Z,101189.30
2018-08-31T07:04:15.091Z,101181.66
2018-08-31T07:06:43.948Z,101192.34
2018-08-31T07:09:12.866Z,101202.73
2018-08-31T07:11:41.800Z,101196.96
2018-08-31T07:14:10.712Z,101200.96
2018-08-31T07:16:39.684Z,101203.50
2018-08-31T07:19:09.963Z,101206.44
2018-08-31T07:21:38.837Z,101206.39
2018-08-31T07:24:07.768Z,101209.73
2018-08-31T07:26:36.686Z,101200.86
2018-08-31T07:29:05.622Z,101209.17
2018-08-31T07:31:34.454Z,101207.54
2018-08-31T07:34:03.329Z,101211.28
2018-08-31T07:36:32.134Z,101212.60
2018-08-31T07:39:02.380Z,101209.42
2018-08-31T07:41:32.637Z,101209.60
2018-08-31T07:44:01.464Z,101215.99
2018-08-31T07:46:30.281Z,101209.18
2018-08-31T07:48:59.150Z,101212.45
2018-08-31T07:51:27.973Z,101213.17
2018-08-31T07:53:56.827Z,101211.20
2018-08-31T07:56:25.685Z,101208.83
2018-08-31T07:58:54.554Z,101212.91
2018-08-31T08:01:23.353Z,101217.35
2018-08-31T08:03:52.297Z,101203.80
2018-08-31T08:06:21.127Z,101208.17
2018-08-31T08:08:49.971Z,101209.63
2018-08-31T08:11:20.387Z,101208.55
2018-08-31T08:13:49.228Z,101203.08
2018-08-31T08:16:18.052Z,101205.23
2018-08-31T08:18:47.157Z,101207.42
2018-08-31T08:21:17.402Z,101202.59
2018-08-31T08:23:46.322Z,101201.52
2018-08-31T08:26:15.154Z,101194.95
2018-08-31T08:28:44.052Z,101201.64
2018-08-31T08:31:12.983Z,101198.97
2018-08-31T08:33:41.803Z,101199.45
2018-08-31T08:36:11.923Z,101202.27
2018-08-31T08:38:41.122Z,101198.71
2018-08-31T08:41:09.966Z,101197.09
2018-08-31T08:43:38.915Z,101194.86
2018-08-31T08:46:07.865Z,101186.39
2018-08-31T08:48:36.925Z,101189.80
2018-08-31T08:51:05.660Z,101185.59
2018-08-31T08:53:35.921Z,101182.41
2018-08-31T08:56:04.819Z,101182.48
2018-08-31T08:58:33.638Z,101182.52
2018-08-31T09:01:02.569Z,101187.36
2018-08-31T09:03:31.511Z,101178.91
2018-08-31T09:06:00.383Z,101182.83
2018-08-31T09:08:29.301Z,101174.69
2018-08-31T09:10:58.159Z,101174.38
2018-08-31T09:13:27.020Z,101175.34
2018-08-31T09:15:55.952Z,101179.13
2018-08-31T09:18:27.267Z,101172.59
2018-08-31T09:20:57.145Z,101172.77
2018-08-31T09:23:26.453Z,101172.72
2018-08-31T09:25:56.772Z,101171.42
2018-08-31T09:28:25.651Z,101173.11
2018-08-31T09:30:54.518Z,101169.89
2018-08-31T09:33:23.473Z,101167.52
2018-08-31T09:35:52.540Z,101167.24
2018-08-31T09:38:21.428Z,101171.34
2018-08-31T09:40:50.307Z,101162.48
2018-08-31T09:43:19.125Z,101161.02
2018-08-31T09:45:47.921Z,101163.91
2018-08-31T09:48:16.805Z,101168.12
2018-08-31T09:50:45.612Z,101168.98
2018-08-31T09:53:14.414Z,101162.52
2018-08-31T09:55:44.558Z,101160.62
2018-08-31T09:58:13.425Z,101162.56
2018-08-31T10:00:47.446Z,101160.95
2018-08-31T10:03:21.413Z,101160.87
2018-08-31T10:05:50.605Z,101158.03
2018-08-31T10:08:19.589Z,101166.38
2018-08-31T10:10:48.607Z,101153.60
2018-08-31T10:13:17.509Z,101163.63
2018-08-31T10:15:46.405Z,101156.06
2018-08-31T10:18:15.243Z,101161.14
2018-08-31T10:20:44.105Z,101153.84
2018-08-31T10:23:14.232Z,101157.33
2018-08-31T10:25:43.089Z,101150.00
2018-08-31T10:28:11.958Z,101148.50
2018-08-31T10:30:40.833Z,101152.05
2018-08-31T10:33:09.685Z,101149.91
2018-08-31T10:35:38.536Z,101152.98
2018-08-31T10:38:08.649Z,101159.20
2018-08-31T10:40:37.465Z,101156.16
2018-08-31T10:43:06.683Z,101159.31
2018-08-31T10:45:35.562Z,101152.66
2018-08-31T10:48:04.404Z,101161.02
2018-08-31T10:50:33.210Z,101152.88
2018-08-31T10:53:03.381Z,101155.00
2018-08-31T10:55:32.210Z,101157.91
2018-08-31T10:58:01.044Z,101149.09
2018-08-31T11:00:29.920Z,101152.27
2018-08-31T11:02:58.880Z,101145.19
2018-08-31T11:05:27.704Z,101149.52
2018-08-31T11:07:57.993Z,101144.34
2018-08-31T11:10:26.854Z,101142.65
2018-08-31T11:12:55.693Z,101146.78
2018-08-31T11:15:24.577Z,101146.70
2018-08-31T11:17:54.690Z,101149.97
2018-08-31T11:20:23.550Z,101150.05
2018-08-31T11:22:53.780Z,101147.44
2018-08-31T11:25:22.674Z,101147.70
2018-08-31T11:27:51.596Z,101146.98
2018-08-31T11:30:20.491Z,101151.13
2018-08-31T11:32:49.456Z,101142.70
2018-08-31T11:35:19.621Z,101147.92
2018-08-31T11:37:49.809Z,101144.25
2018-08-31T11:40:19.895Z,101143.64
2018-08-31T11:42:48.717Z,101147.59
2018-08-31T11:45:19.015Z,101138.20
2018-08-31T11:47:47.897Z,101139.79
2018-08-31T11:50:16.717Z,101128.61
2018-08-31T11:52:46.857Z,101129.08
2018-08-31T11:55:15.795Z,101129.77
2018-08-31T11:57:44.573Z,101131.83
2018-08-31T12:00:13.523Z,101136.62
2018-08-31T12:02:42.470Z,101123.53
2018-08-31T12:05:11.388Z,101124.75
2018-08-31T12:07:40.200Z,101121.23
2018-08-31T12:10:10.312Z,101117.79
2018-08-31T12:12:39.161Z,101118.09
2018-08-31T12:15:08.033Z,101113.85
2018-08-31T12:17:36.922Z,101110.94
2018-08-31T12:20:05.978Z,101111.33
2018-08-31T12:22:35.094Z,101111.15
2018-08-31T12:25:04.093Z,101109.16
2018-08-31T12:27:32.911Z,101105.88
2018-08-31T12:30:01.950Z,101106.20
2018-08-31T12:32:30.809Z,101103.42
2018-08-31T12:35:00.922Z,101108.53
2018-08-31T12:37:29.831Z,101104.64
2018-08-31T12:39:58.745Z,101104.48
2018-08-31T12:42:28.860Z,101106.08
2018-08-31T12:44:57.694Z,101096.58
2018-08-31T12:47:26.587Z,101101.05
2018-08-31T12:49:56.772Z,101103.25
2018-08-31T12:52:25.601Z,101096.88
2018-08-31T12:54:54.402Z,101102.34
2018-08-31T12:57:23.300Z,101101.79
2018-08-31T12:59:58.443Z,101098.50
2018-08-31T13:02:27.461Z,101105.95
2018-08-31T13:04:56.405Z,101099.59
2018-08-31T13:07:26.925Z,101102.94
2018-08-31T13:09:55.862Z,101100.08
2018-08-31T13:12:24.841Z,101092.97
2018-08-31T13:14:53.737Z,101101.84
2018-08-31T13:17:22.577Z,101098.69
2018-08-31T13:19:51.672Z,101095.63
2018-08-31T13:22:20.549Z,101091.89
2018-08-31T13:24:49.376Z,101094.16
2018-08-31T13:27:18.252Z,101090.11
2018-08-31T13:29:47.176Z,101089.51
2018-08-31T13:32:15.973Z,101094.30
2018-08-31T13:34:44.857Z,101092.40
2018-08-31T13:37:13.775Z,101096.66
2018-08-31T13:39:42.676Z,101094.25
2018-08-31T13:42:11.509Z,101092.08
2018-08-31T13:44:40.392Z,101098.53
2018-08-31T13:47:09.307Z,101096.94
2018-08-31T13:49:38.216Z,101092.04
2018-08-31T13:52:07.092Z,101083.90
2018-08-31T13:54:36.068Z,101091.86
2018-08-31T13:57:06.224Z,101089.55
2018-08-31T13:59:35.086Z,101084.66
2018-08-31T14:02:03.926Z,101086.98
2018-08-31T14:04:32.804Z,101086.35
2018-08-31T14:07:01.662Z,101082.04
2018-08-31T14:09:30.530Z,101079.38
2018-08-31T14:11:59.364Z,101073.82
2018-08-31T14:14:28.210Z,101075.27
2018-08-31T14:16:57.068Z,101080.34
2018-08-31T14:19:26.038Z,101073.22
2018-08-31T14:21:54.873Z,101075.56
2018-08-31T14:24:23.694Z,101069.57
2018-08-31T14:26:52.541Z,101075.69
2018-08-31T14:29:21.378Z,101069.11
2018-08-31T14:31:50.281Z,101072.41
2018-08-31T14:34:19.105Z,101069.67
2018-08-31T14:36:48.015Z,101073.53
2018-08-31T14:39:16.854Z,101076.14
2018-08-31T14:41:45.708Z,101070.58
2018-08-31T14:44:14.610Z,101065.45
2018-08-31T14:46:43.519Z,101063.13
2018-08-31T14:49:12.326Z,101059.22
2018-08-31T14:51:41.201Z,101061.48
2018-08-31T14:54:10.092Z,101055.91
2018-08-31T14:56:38.933Z,101051.20
2018-08-31T14:59:07.845Z,101059.48
2018-08-31T15:01:36.673Z,101064.37
2018-08-31T15:04:05.589Z,101061.06
2018-08-31T15:06:34.496Z,101064.28
2018-08-31T15:09:03.598Z,101062.33
2018-08-31T15:11:33.676Z,101063.55
2018-08-31T15:14:02.529Z,101061.59
2018-08-31T15:16:31.357Z,101058.31
2018-08-31T15:19:00.236Z,101056.18
2018-08-31T15:21:29.103Z,101054.98
2018-08-31T15:23:57.952Z,101062.41
2018-08-31T15:26:26.782Z,101058.73
2018-08-31T15:28:57.293Z,101054.29
2018-08-31T15:31:26.168Z,101051.55
2018-08-31T15:33:55.012Z,101054.76
2018-08-31T15:36:23.852Z,101052.36
2018-08-31T15:38:52.697Z,101049.59
2018-08-31T15:41:21.533Z,101055.80
2018-08-31T15:43:50.424Z,101057.47
2018-08-31T15:46:19.327Z,101052.36
2018-08-31T15:48:48.189Z,101056.69
2018-08-31T15:51:18.325Z,101057.13
2018-08-31T15:53:47.295Z,101058.02
2018-08-31T15:56:16.224Z,101052.52
2018-08-31T15:58:45.097Z,101048.47
2018-08-31T16:01:13.957Z,101060.19
2018-08-31T16:03:42.820Z,101051.61
2018-08-31T16:06:13.140Z,101047.17
2018-08-31T16:08:41.981Z,101057.86
2018-08-31T16:11:12.142Z,101051.40
2018-08-31T16:13:41.093Z,101053.41
2018-08-31T16:16:10.301Z,101052.32
2018-08-31T16:18:39.197Z,101047.75
2018-08-31T16:21:08.050Z,101056.17
2018-08-31T16:23:36.934Z,101061.70
2018-08-31T16:26:05.858Z,101060.77
2018-08-31T16:28:34.709Z,101058.34
2018-08-31T16:31:03.611Z,101056.08
2018-08-31T16:33:32.701Z,101054.45
2018-08-31T16:36:01.884Z,101057.27
2018-08-31T16:38:30.999Z,101067.69
2018-08-31T16:41:01.532Z,101075.81
2018-08-31T16:43:30.409Z,101071.47
2018-08-31T16:45:59.231Z,101076.35
2018-08-31T16:48:29.341Z,101076.67
2018-08-31T16:50:58.211Z,101080.01
2018-08-31T16:53:27.075Z,101083.30
2018-08-31T16:55:57.332Z,101082.05
2018-08-31T16:58:26.240Z,101085.30
2018-08-31T17:01:01.397Z,101082.48
2018-08-31T17:03:30.261Z,101093.82
2018-08-31T17:05:59.102Z,101093.48
2018-08-31T17:08:28.304Z,101104.89
2018-08-31T17:10:57.192Z,101107.17
2018-08-31T17:13:26.052Z,101109.19
2018-08-31T17:15:54.998Z,101110.58
2018-08-31T17:18:23.982Z,101107.61
2018-08-31T17:20:53.613Z,101111.18
2018-08-31T17:23:22.557Z,101119.73
2018-08-31T17:25:51.425Z,101121.98
2018-08-31T17:28:25.424Z,101117.51
2018-08-31T17:30:59.373Z,101120.24
2018-08-31T17:34:35.626Z,101119.59
2018-08-31T17:37:09.604Z,101126.17
2018-08-31T17:39:38.484Z,101131.22
2018-08-31T17:42:07.643Z,101142.06
2018-08-31T17:44:36.541Z,101137.55
2018-08-31T17:47:05.590Z,101142.63
2018-08-31T17:49:34.496Z,101145.30
2018-08-31T17:52:03.374Z,101145.75
2018-08-31T17:54:32.253Z,101147.70
2018-08-31T17:57:02.450Z,101145.48
2018-08-31T17:59:31.328Z,101149.54
2018-08-31T18:02:00.281Z,101151.66
2018-08-31T18:04:30.656Z,101155.45
2018-08-31T18:06:59.489Z,101153.50
2018-08-31T18:09:28.431Z,101150.67
2018-08-31T18:11:57.270Z,101166.14
2018-08-31T18:14:26.277Z,101167.16
2018-08-31T18:16:55.163Z,101165.05
2018-08-31T18:19:24.042Z,101163.13
2018-08-31T18:21:52.952Z,101167.48
2018-08-31T18:24:21.853Z,101163.33
2018-08-31T18:26:50.714Z,101164.86
2018-08-31T18:29:19.622Z,101162.95
2018-08-31T18:31:48.441Z,101165.23
2018-08-31T18:34:17.249Z,101166.02
2018-08-31T18:36:46.171Z,101159.81
2018-08-31T18:39:15.001Z,101161.61
2018-08-31T18:41:45.082Z,101164.03
2018-08-31T18:44:13.954Z,101164.46
2018-08-31T18:46:42.838Z,101165.42
2018-08-31T18:49:13.382Z,101164.90
2018-08-31T18:51:42.297Z,101158.26
2018-08-31T18:54:12.040Z,101155.87
2018-08-31T18:56:41.257Z,101158.97
2018-08-31T18:59:10.209Z,101158.69
2018-08-31T19:01:39.077Z,101155.08
2018-08-31T19:04:07.942Z,101155.06
2018-08-31T19:06:36.790Z,101156.25
2018-08-31T19:09:07.110Z,101148.26
2018-08-31T19:11:35.922Z,101151.05
2018-08-31T19:14:05.118Z,101159.45
2018-08-31T19:16:35.456Z,101162.16
2018-08-31T19:19:04.409Z,101160.00
2018-08-31T19:21:33.306Z,101162.34
2018-08-31T19:24:02.221Z,101161.01
2018-08-31T19:26:32.474Z,101156.58
2018-08-31T19:29:02.281Z,101157.61
2018-08-31T19:31:32.492Z,101160.86
2018-08-31T19:34:01.443Z,101154.70
2018-08-31T19:36:30.254Z,101157.72
2018-08-31T19:38:59.205Z,101152.23
2018-08-31T19:41:28.130Z,101160.18
2018-08-31T19:43:57.030Z,101155.57
2018-08-31T19:46:27.158Z,101160.86
2018-08-31T19:48:56.069Z,101151.61
2018-08-31T19:51:26.236Z,101156.91
2018-08-31T19:53:55.151Z,101162.55
2018-08-31T19:56:24.071Z,101164.22
2018-08-31T19:58:54.408Z,101165.85
2018-08-31T20:01:23.288Z,101163.06
2018-08-31T20:03:52.153Z,101162.94
2018-08-31T20:06:21.092Z,101168.55
2018-08-31T20:08:51.011Z,101166.25
2018-08-31T20:11:19.955Z,101170.09
2018-08-31T20:13:48.845Z,101163.14
2018-08-31T20:16:17.718Z,101161.97
2018-08-31T20:18:47.797Z,101164.95
2018-08-31T20:21:16.625Z,101162.97
2018-08-31T20:23:45.537Z,101162.33
2018-08-31T20:26:14.509Z,101161.48
2018-08-31T20:28:43.430Z,101162.45
2018-08-31T20:31:13.452Z,101160.02
2018-08-31T20:33:43.620Z,101163.64
2018-08-31T20:36:12.452Z,101167.47
2018-08-31T20:38:41.374Z,101156.19
2018-08-31T20:41:10.212Z,101169.15
2018-08-31T20:43:39.033Z,101164.64
2018-08-31T20:46:07.876Z,101162.34
2018-08-31T20:48:36.761Z,101162.68
2018-08-31T20:51:05.716Z,101170.97
2018-08-31T20:53:34.562Z,101165.66
2018-08-31T20:56:03.485Z,101168.31
2018-08-31T20:58:32.399Z,101160.03
2018-08-31T21:01:01.217Z,101158.85
2018-08-31T21:03:30.150Z,101167.82
2018-08-31T21:05:59.381Z,101161.34
2018-08-31T21:08:28.290Z,101169.15
2018-08-31T21:10:57.164Z,101167.98
2018-08-31T21:13:26.017Z,101167.64
2018-08-31T21:15:54.864Z,101164.49
2018-08-31T21:18:23.699Z,101161.01
2018-08-31T21:20:52.521Z,101164.49
2018-08-31T21:23:21.397Z,101168.95
2018-08-31T21:25:50.256Z,101165.97
2018-08-31T21:28:19.079Z,101171.27
2018-08-31T21:30:47.921Z,101167.30
2018-08-31T21:33:18.053Z,101161.19
2018-08-31T21:35:46.917Z,101162.52
2018-08-31T21:38:15.788Z,101167.12
2018-08-31T21:40:44.605Z,101166.98
2018-08-31T21:43:13.593Z,101172.87
2018-08-31T21:45:42.416Z,101165.91
2018-08-31T21:48:11.305Z,101171.86
2018-08-31T21:50:40.209Z,101165.24
2018-08-31T21:53:09.302Z,101168.55
2018-08-31T21:55:38.151Z,101167.57
2018-08-31T21:58:08.525Z,101160.62
2018-08-31T22:03:15.254Z,101161.59
2018-08-31T22:05:47.637Z,101164.81
2018-08-31T22:08:17.601Z,101169.20
2018-08-31T22:10:46.572Z,101170.28
2018-08-31T22:13:15.429Z,101172.41
2018-08-31T22:15:44.246Z,101167.33
2018-08-31T22:18:13.234Z,101168.11
2018-08-31T22:20:42.173Z,101171.76
2018-08-31T22:23:11.151Z,101165.30
2018-08-31T22:25:40.044Z,101174.25
2018-08-31T22:28:08.884Z,101172.70
2018-08-31T22:30:37.802Z,101173.39
2018-08-31T22:33:06.614Z,101170.94
2018-08-31T22:35:36.873Z,101171.09
2018-08-31T22:38:05.664Z,101169.81
2018-08-31T22:40:34.674Z,101157.38
2018-08-31T22:43:03.431Z,101157.50
2018-08-31T22:45:32.254Z,101158.63
2018-08-31T22:48:01.081Z,101164.65
2018-08-31T22:50:29.895Z,101158.38
2018-08-31T22:52:58.759Z,101155.07
2018-08-31T22:55:27.642Z,101159.25
2018-08-31T22:57:56.517Z,101153.94
2018-08-31T23:00:26.844Z,101153.62
2018-08-31T23:02:56.262Z,101159.72
2018-08-31T23:05:25.122Z,101157.53
2018-08-31T23:07:58.843Z,101150.20
2018-08-31T23:10:27.768Z,101149.84
2018-08-31T23:12:56.619Z,101152.91
2018-08-31T23:15:25.438Z,101144.35
2018-08-31T23:17:55.505Z,101150.05
2018-08-31T23:20:24.359Z,101143.22
2018-08-31T23:22:57.257Z,101150.17
2018-08-31T23:25:31.066Z,101142.61
2018-08-31T23:27:59.918Z,101144.74
2018-08-31T23:30:28.697Z,101151.67
2018-08-31T23:32:57.728Z,101145.34
2018-08-31T23:35:26.561Z,101144.77
2018-08-31T23:37:55.367Z,101144.31
2018-08-31T23:40:24.230Z,101147.55
2018-08-31T23:42:53.030Z,101139.00
2018-08-31T23:45:21.855Z,101133.61
2018-08-31T23:47:50.705Z,101135.14
2018-08-31T23:50:19.624Z,101133.89
2018-08-31T23:55:23.676Z,101133.23
2018-08-31T23:57:52.497Z,101128.92
